createdAt,value
2016-05-12T00:00:01.789Z,973.39
2016-05-12T00:01:01.792Z,973.4
2016-05-12T00:02:01.794Z,973.36
2016-05-12T00:03:01.797Z,973.39
2016-05-12T00:04:01.800Z,973.38
2016-05-12T00:05:01.802Z,973.36
2016-05-12T00:06:01.805Z,973.37
2016-05-12T00:07:01.807Z,973.33
2016-05-12T00:08:01.826Z,973.35
2016-05-12T00:09:01.829Z,973.33
2016-05-12T00:10:01.831Z,973.37
2016-05-12T00:11:01.819Z,973.36
2016-05-12T00:12:01.837Z,973.34
2016-05-12T00:13:01.840Z,973.33
2016-05-12T00:14:01.843Z,973.29
2016-05-12T00:15:01.845Z,973.33
2016-05-12T00:16:01.848Z,973.33
2016-05-12T00:17:01.850Z,973.33
2016-05-12T00:18:01.853Z,973.33
2016-05-12T00:19:01.856Z,973.34
2016-05-12T00:20:01.859Z,973.33
2016-05-12T00:21:01.861Z,973.34
2016-05-12T00:22:01.879Z,973.32
2016-05-12T00:23:01.866Z,973.36
2016-05-12T00:24:01.870Z,973.37
2016-05-12T00:25:01.873Z,973.39
2016-05-12T00:26:01.875Z,973.4
2016-05-12T00:27:01.877Z,973.38
2016-05-12T00:28:01.880Z,973.36
2016-05-12T00:29:01.897Z,973.34
2016-05-12T00:30:01.900Z,973.37
2016-05-12T00:31:01.903Z,973.34
2016-05-12T00:32:01.922Z,973.35
2016-05-12T00:33:01.909Z,973.35
2016-05-12T00:34:01.911Z,973.29
2016-05-12T00:35:01.914Z,973.31
2016-05-12T00:36:01.917Z,973.27
2016-05-12T00:37:01.919Z,973.29
2016-05-12T00:38:01.922Z,973.31
2016-05-12T00:39:01.925Z,973.29
2016-05-12T00:40:01.928Z,973.29
2016-05-12T00:41:01.930Z,973.3
2016-05-12T00:42:01.933Z,973.25
2016-05-12T00:43:01.951Z,973.29
2016-05-12T00:44:01.938Z,973.25
2016-05-12T00:45:01.940Z,973.27
2016-05-12T00:46:01.959Z,973.25
2016-05-12T00:47:01.947Z,973.23
2016-05-12T00:48:01.949Z,973.22
2016-05-12T00:49:01.952Z,973.22
2016-05-12T00:50:01.954Z,973.17
2016-05-12T00:51:01.957Z,973.16
2016-05-12T00:52:01.959Z,973.15
2016-05-12T00:53:01.978Z,973.09
2016-05-12T00:54:01.981Z,973.07
2016-05-12T00:55:01.984Z,973.07
2016-05-12T00:56:01.970Z,973.02
2016-05-12T00:57:01.973Z,973.04
2016-05-12T00:58:01.976Z,973.06
2016-05-12T00:59:01.995Z,973.02
2016-05-12T01:00:01.981Z,973.03
2016-05-12T01:01:01.999Z,973
2016-05-12T01:02:01.987Z,972.99
2016-05-12T01:03:01.990Z,972.94
2016-05-12T01:04:01.992Z,972.97
2016-05-12T01:05:01.994Z,972.97
2016-05-12T01:06:02.013Z,972.96
2016-05-12T01:07:02.000Z,972.95
2016-05-12T01:08:02.003Z,972.9
2016-05-12T01:09:02.006Z,972.91
2016-05-12T01:10:02.008Z,972.9
2016-05-12T01:11:02.027Z,972.92
2016-05-12T01:12:02.029Z,972.9
2016-05-12T01:13:02.047Z,972.9
2016-05-12T01:14:02.019Z,972.84
2016-05-12T01:15:02.038Z,972.85
2016-05-12T01:16:02.041Z,972.87
2016-05-12T01:17:02.043Z,972.89
2016-05-12T01:18:02.045Z,972.91
2016-05-12T01:19:02.032Z,972.89
2016-05-12T01:20:02.051Z,972.88
2016-05-12T01:21:02.053Z,972.88
2016-05-12T01:22:02.057Z,972.88
2016-05-12T01:23:02.059Z,972.89
2016-05-12T01:24:02.062Z,972.86
2016-05-12T01:25:02.065Z,972.88
2016-05-12T01:26:02.067Z,972.83
2016-05-12T01:27:02.070Z,972.85
2016-05-12T01:28:02.072Z,972.85
2016-05-12T01:29:02.075Z,972.86
2016-05-12T01:30:02.078Z,972.85
2016-05-12T01:31:02.081Z,972.86
2016-05-12T01:32:02.098Z,972.8
2016-05-12T01:33:02.086Z,972.85
2016-05-12T01:34:02.088Z,972.85
2016-05-12T01:35:02.091Z,972.81
2016-05-12T01:36:02.094Z,972.83
2016-05-12T01:37:02.097Z,972.79
2016-05-12T01:38:02.100Z,972.82
2016-05-12T01:39:02.102Z,972.81
2016-05-12T01:40:02.105Z,972.78
2016-05-12T01:41:02.107Z,972.76
2016-05-12T01:42:02.111Z,972.74
2016-05-12T01:43:02.113Z,972.78
2016-05-12T01:44:02.115Z,972.76
2016-05-12T01:45:02.118Z,972.76
2016-05-12T01:46:02.121Z,972.76
2016-05-12T01:47:02.124Z,972.76
2016-05-12T01:48:02.126Z,972.82
2016-05-12T01:49:02.129Z,972.74
2016-05-12T01:50:02.132Z,972.8
2016-05-12T01:51:02.134Z,972.77
2016-05-12T01:52:02.137Z,972.77
2016-05-12T01:53:02.140Z,972.81
2016-05-12T01:54:02.142Z,972.79
2016-05-12T01:55:02.145Z,972.79
2016-05-12T01:56:02.148Z,972.81
2016-05-12T01:57:02.151Z,972.79
2016-05-12T01:58:02.153Z,972.78
2016-05-12T01:59:02.156Z,972.75
2016-05-12T02:00:02.159Z,972.77
2016-05-12T02:01:02.161Z,972.76
2016-05-12T02:02:02.163Z,972.78
2016-05-12T02:03:02.166Z,972.82
2016-05-12T02:04:02.170Z,972.78
2016-05-12T02:05:02.172Z,972.75
2016-05-12T02:06:02.174Z,972.74
2016-05-12T02:07:02.177Z,972.75
2016-05-12T02:08:02.180Z,972.74
2016-05-12T02:09:02.183Z,972.77
2016-05-12T02:10:02.185Z,972.78
2016-05-12T02:11:02.188Z,972.71
2016-05-12T02:12:02.191Z,972.73
2016-05-12T02:13:02.193Z,972.69
2016-05-12T02:14:02.196Z,972.71
2016-05-12T02:15:02.199Z,972.69
2016-05-12T02:16:02.201Z,972.7
2016-05-12T02:17:02.205Z,972.69
2016-05-12T02:18:02.207Z,972.69
2016-05-12T02:19:02.209Z,972.69
2016-05-12T02:20:02.213Z,972.73
2016-05-12T02:21:02.215Z,972.69
2016-05-12T02:22:02.218Z,972.73
2016-05-12T02:23:02.220Z,972.71
2016-05-12T02:24:02.223Z,972.69
2016-05-12T02:25:02.226Z,972.7
2016-05-12T02:26:02.229Z,972.71
2016-05-12T02:27:02.231Z,972.75
2016-05-12T02:28:02.234Z,972.73
2016-05-12T02:29:02.236Z,972.74
2016-05-12T02:30:02.239Z,972.78
2016-05-12T02:31:02.242Z,972.71
2016-05-12T02:32:02.245Z,972.76
2016-05-12T02:33:02.232Z,972.75
2016-05-12T02:34:02.250Z,972.74
2016-05-12T02:35:02.252Z,972.77
2016-05-12T02:36:02.256Z,972.76
2016-05-12T02:37:02.258Z,972.74
2016-05-12T02:38:02.260Z,972.77
2016-05-12T02:39:02.264Z,972.74
2016-05-12T02:40:02.266Z,972.73
2016-05-12T02:41:02.253Z,972.75
2016-05-12T02:42:02.256Z,972.71
2016-05-12T02:43:02.258Z,972.7
2016-05-12T02:44:02.261Z,972.72
2016-05-12T02:45:02.279Z,972.69
2016-05-12T02:46:02.266Z,972.69
2016-05-12T02:47:02.269Z,972.67
2016-05-12T02:48:02.272Z,972.66
2016-05-12T02:49:02.290Z,972.62
2016-05-12T02:50:02.293Z,972.59
2016-05-12T02:51:02.280Z,972.61
2016-05-12T02:52:02.283Z,972.59
2016-05-12T02:53:02.285Z,972.61
2016-05-12T02:54:02.288Z,972.61
2016-05-12T02:55:02.290Z,972.6
2016-05-12T02:56:02.309Z,972.52
2016-05-12T02:57:02.311Z,972.53
2016-05-12T02:58:02.314Z,972.58
2016-05-12T02:59:02.302Z,972.54
2016-05-12T03:00:02.304Z,972.57
2016-05-12T03:01:02.307Z,972.55
2016-05-12T03:02:02.309Z,972.56
2016-05-12T03:03:02.312Z,972.57
2016-05-12T03:04:02.314Z,972.52
2016-05-12T03:05:02.318Z,972.53
2016-05-12T03:06:02.320Z,972.53
2016-05-12T03:07:02.323Z,972.54
2016-05-12T03:08:02.325Z,972.53
2016-05-12T03:09:02.328Z,972.55
2016-05-12T03:10:02.331Z,972.54
2016-05-12T03:11:02.334Z,972.56
2016-05-12T03:12:02.336Z,972.6
2016-05-12T03:13:02.339Z,972.57
2016-05-12T03:14:02.342Z,972.59
2016-05-12T03:15:02.344Z,972.6
2016-05-12T03:16:02.347Z,972.58
2016-05-12T03:17:02.349Z,972.59
2016-05-12T03:18:02.353Z,972.55
2016-05-12T03:19:02.355Z,972.59
2016-05-12T03:20:02.358Z,972.59
2016-05-12T03:21:02.361Z,972.62
2016-05-12T03:22:02.363Z,972.59
2016-05-12T03:23:02.365Z,972.58
2016-05-12T03:24:02.368Z,972.6
2016-05-12T03:25:02.371Z,972.61
2016-05-12T03:26:02.374Z,972.61
2016-05-12T03:27:02.376Z,972.59
2016-05-12T03:28:02.379Z,972.61
2016-05-12T03:29:02.382Z,972.55
2016-05-12T03:30:02.384Z,972.58
2016-05-12T03:31:02.387Z,972.55
2016-05-12T03:32:02.390Z,972.54
2016-05-12T03:33:02.393Z,972.53
2016-05-12T03:34:02.380Z,972.49
2016-05-12T03:35:02.398Z,972.53
2016-05-12T03:36:02.385Z,972.54
2016-05-12T03:37:02.388Z,972.53
2016-05-12T03:38:02.391Z,972.54
2016-05-12T03:39:02.409Z,972.53
2016-05-12T03:40:02.397Z,972.57
2016-05-12T03:41:02.399Z,972.57
2016-05-12T03:42:02.416Z,972.6
2016-05-12T03:43:02.404Z,972.62
2016-05-12T03:44:02.422Z,972.65
2016-05-12T03:45:02.410Z,972.7
2016-05-12T03:46:02.427Z,972.68
2016-05-12T03:47:02.415Z,972.68
2016-05-12T03:48:02.418Z,972.71
2016-05-12T03:49:02.421Z,972.73
2016-05-12T03:50:02.423Z,972.68
2016-05-12T03:51:02.426Z,972.66
2016-05-12T03:52:02.429Z,972.66
2016-05-12T03:53:02.432Z,972.66
2016-05-12T03:54:02.434Z,972.68
2016-05-12T03:55:02.452Z,972.66
2016-05-12T03:56:02.439Z,972.68
2016-05-12T03:57:02.442Z,972.67
2016-05-12T03:58:02.460Z,972.68
2016-05-12T03:59:02.463Z,972.73
2016-05-12T04:00:02.451Z,972.69
2016-05-12T04:01:02.453Z,972.68
2016-05-12T04:02:02.471Z,972.69
2016-05-12T04:03:02.458Z,972.68
2016-05-12T04:04:02.476Z,972.67
2016-05-12T04:05:02.464Z,972.69
2016-05-12T04:06:02.467Z,972.71
2016-05-12T04:07:02.469Z,972.72
2016-05-12T04:08:02.472Z,972.74
2016-05-12T04:09:02.474Z,972.75
2016-05-12T04:10:02.477Z,972.76
2016-05-12T04:11:02.480Z,972.71
2016-05-12T04:12:02.483Z,972.72
2016-05-12T04:13:02.485Z,972.72
2016-05-12T04:14:02.488Z,972.72
2016-05-12T04:15:02.490Z,972.72
2016-05-12T04:16:02.493Z,972.68
2016-05-12T04:17:02.496Z,972.7
2016-05-12T04:18:02.498Z,972.69
2016-05-12T04:19:02.502Z,972.68
2016-05-12T04:20:02.504Z,972.68
2016-05-12T04:21:02.507Z,972.66
2016-05-12T04:22:02.509Z,972.63
2016-05-12T04:23:02.512Z,972.66
2016-05-12T04:24:02.514Z,972.67
2016-05-12T04:25:02.517Z,972.68
2016-05-12T04:26:02.520Z,972.67
2016-05-12T04:27:02.523Z,972.7
2016-05-12T04:28:02.525Z,972.67
2016-05-12T04:29:02.528Z,972.66
2016-05-12T04:30:02.531Z,972.71
2016-05-12T04:31:02.534Z,972.64
2016-05-12T04:32:02.536Z,972.66
2016-05-12T04:33:02.539Z,972.63
2016-05-12T04:34:02.542Z,972.65
2016-05-12T04:35:02.544Z,972.62
2016-05-12T04:36:02.547Z,972.64
2016-05-12T04:37:02.549Z,972.6
2016-05-12T04:38:02.553Z,972.59
2016-05-12T04:39:02.556Z,972.61
2016-05-12T04:40:02.558Z,972.58
2016-05-12T04:41:02.560Z,972.58
2016-05-12T04:42:02.563Z,972.55
2016-05-12T04:43:02.565Z,972.53
2016-05-12T04:44:02.569Z,972.54
2016-05-12T04:45:02.572Z,972.49
2016-05-12T04:46:02.574Z,972.48
2016-05-12T04:47:02.577Z,972.48
2016-05-12T04:48:02.579Z,972.51
2016-05-12T04:49:02.582Z,972.47
2016-05-12T04:50:02.584Z,972.51
2016-05-12T04:51:02.588Z,972.46
2016-05-12T04:52:02.590Z,972.49
2016-05-12T04:53:02.593Z,972.51
2016-05-12T04:54:02.595Z,972.53
2016-05-12T04:55:02.598Z,972.57
2016-05-12T04:56:02.601Z,972.58
2016-05-12T04:57:02.604Z,972.55
2016-05-12T04:58:02.606Z,972.6
2016-05-12T04:59:02.609Z,972.6
2016-05-12T05:00:02.612Z,972.59
2016-05-12T05:01:02.614Z,972.6
2016-05-12T05:02:02.617Z,972.56
2016-05-12T05:03:02.619Z,972.61
2016-05-12T05:04:02.654Z,972.58
2016-05-12T05:05:02.625Z,972.63
2016-05-12T05:06:02.643Z,972.65
2016-05-12T05:07:02.631Z,972.66
2016-05-12T05:08:02.633Z,972.66
2016-05-12T05:09:02.636Z,972.66
2016-05-12T05:10:02.653Z,972.65
2016-05-12T05:11:02.656Z,972.68
2016-05-12T05:12:02.659Z,972.67
2016-05-12T05:13:02.647Z,972.72
2016-05-12T05:14:02.649Z,972.69
2016-05-12T05:15:02.667Z,972.71
2016-05-12T05:16:02.669Z,972.7
2016-05-12T05:17:02.672Z,972.71
2016-05-12T05:18:02.675Z,972.66
2016-05-12T05:19:02.678Z,972.7
2016-05-12T05:20:02.680Z,972.73
2016-05-12T05:21:02.683Z,972.71
2016-05-12T05:22:02.686Z,972.66
2016-05-12T05:23:02.688Z,972.66
2016-05-12T05:24:02.692Z,972.66
2016-05-12T05:25:02.694Z,972.64
2016-05-12T05:26:02.697Z,972.65
2016-05-12T05:27:02.699Z,972.61
2016-05-12T05:28:02.702Z,972.63
2016-05-12T05:29:02.704Z,972.59
2016-05-12T05:30:02.707Z,972.63
2016-05-12T05:31:02.710Z,972.63
2016-05-12T05:32:02.713Z,972.56
2016-05-12T05:33:02.715Z,972.58
2016-05-12T05:34:02.718Z,972.61
2016-05-12T05:35:02.721Z,972.63
2016-05-12T05:36:02.739Z,972.63
2016-05-12T05:37:02.742Z,972.6
2016-05-12T05:38:02.728Z,972.63
2016-05-12T05:39:02.732Z,972.63
2016-05-12T05:40:02.751Z,972.59
2016-05-12T05:41:02.753Z,972.65
2016-05-12T05:42:02.756Z,972.6
2016-05-12T05:43:02.758Z,972.58
2016-05-12T05:44:02.760Z,972.59
2016-05-12T05:45:02.764Z,972.57
2016-05-12T05:46:02.766Z,972.57
2016-05-12T05:47:02.769Z,972.54
2016-05-12T05:48:02.772Z,972.58
2016-05-12T05:49:02.774Z,972.53
2016-05-12T05:50:02.777Z,972.55
2016-05-12T05:51:02.780Z,972.52
2016-05-12T05:52:02.782Z,972.51
2016-05-12T05:53:02.785Z,972.5
2016-05-12T05:54:02.787Z,972.51
2016-05-12T05:55:02.790Z,972.5
2016-05-12T05:56:02.809Z,972.49
2016-05-12T05:57:02.811Z,972.51
2016-05-12T05:58:02.813Z,972.51
2016-05-12T05:59:02.801Z,972.52
2016-05-12T06:00:02.819Z,972.5
2016-05-12T06:01:02.822Z,972.47
2016-05-12T06:02:02.996Z,972.48
2016-05-12T06:03:02.827Z,972.46
2016-05-12T06:04:02.830Z,972.46
2016-05-12T06:05:02.833Z,972.44
2016-05-12T06:06:02.835Z,972.45
2016-05-12T06:07:02.838Z,972.38
2016-05-12T06:08:02.840Z,972.4
2016-05-12T06:09:02.859Z,972.43
2016-05-12T06:10:02.861Z,972.38
2016-05-12T06:11:02.865Z,972.42
2016-05-12T06:12:02.867Z,972.43
2016-05-12T06:13:02.870Z,972.44
2016-05-12T06:14:02.872Z,972.49
2016-05-12T06:15:02.891Z,972.5
2016-05-12T06:16:02.878Z,972.46
2016-05-12T06:17:02.897Z,972.43
2016-05-12T06:18:02.899Z,972.4
2016-05-12T06:19:02.902Z,972.42
2016-05-12T06:20:02.905Z,972.43
2016-05-12T06:21:02.907Z,972.41
2016-05-12T06:22:02.925Z,972.41
2016-05-12T06:23:02.913Z,972.43
2016-05-12T06:24:02.930Z,972.44
2016-05-12T06:25:02.933Z,972.39
2016-05-12T06:26:02.936Z,972.42
2016-05-12T06:27:02.939Z,972.48
2016-05-12T06:28:02.941Z,972.48
2016-05-12T06:29:02.944Z,972.48
2016-05-12T06:30:02.963Z,972.5
2016-05-12T06:31:02.965Z,972.51
2016-05-12T06:32:02.952Z,972.52
2016-05-12T06:33:02.970Z,972.53
2016-05-12T06:34:02.974Z,972.56
2016-05-12T06:35:02.976Z,972.58
2016-05-12T06:36:02.978Z,972.55
2016-05-12T06:37:02.982Z,972.56
2016-05-12T06:38:02.984Z,972.57
2016-05-12T06:39:03.003Z,972.57
2016-05-12T06:40:02.990Z,972.55
2016-05-12T06:41:03.009Z,972.6
2016-05-12T06:42:03.011Z,972.64
2016-05-12T06:43:03.014Z,972.65
2016-05-12T06:44:03.031Z,972.62
2016-05-12T06:45:03.019Z,972.65
2016-05-12T06:46:03.022Z,972.66
2016-05-12T06:47:03.024Z,972.66
2016-05-12T06:48:03.027Z,972.66
2016-05-12T06:49:03.044Z,972.67
2016-05-12T06:50:03.090Z,972.67
2016-05-12T06:51:03.136Z,972.67
2016-05-12T06:52:03.181Z,972.72
2016-05-12T06:53:03.227Z,972.7
2016-05-12T06:54:03.289Z,972.67
2016-05-12T06:55:03.307Z,972.7
2016-05-12T06:56:03.326Z,972.71
2016-05-12T06:57:03.343Z,972.7
2016-05-12T06:58:03.361Z,972.71
2016-05-12T06:59:03.379Z,972.72
2016-05-12T07:00:03.387Z,972.74
2016-05-12T07:01:03.396Z,972.73
2016-05-12T07:02:03.403Z,972.79
2016-05-12T07:03:03.412Z,972.73
2016-05-12T07:04:03.419Z,972.72
2016-05-12T07:05:03.424Z,972.72
2016-05-12T07:06:03.429Z,972.74
2016-05-12T07:07:03.449Z,972.73
2016-05-12T07:08:03.453Z,972.75
2016-05-12T07:09:03.458Z,972.7
2016-05-12T07:10:03.478Z,972.73
2016-05-12T07:11:03.481Z,972.72
2016-05-12T07:12:03.484Z,972.69
2016-05-12T07:13:03.487Z,972.71
2016-05-12T07:14:03.491Z,972.67
2016-05-12T07:15:03.478Z,972.73
2016-05-12T07:16:03.481Z,972.73
2016-05-12T07:17:03.500Z,972.69
2016-05-12T07:18:03.503Z,972.74
2016-05-12T07:19:03.506Z,972.74
2016-05-12T07:20:03.509Z,972.75
2016-05-12T07:21:03.511Z,972.76
2016-05-12T07:22:03.514Z,972.74
2016-05-12T07:23:03.517Z,972.72
2016-05-12T07:24:03.520Z,972.75
2016-05-12T07:25:03.539Z,972.74
2016-05-12T07:26:03.541Z,972.76
2016-05-12T07:27:03.543Z,972.76
2016-05-12T07:28:03.547Z,972.73
2016-05-12T07:29:03.549Z,972.7
2016-05-12T07:30:03.552Z,972.68
2016-05-12T07:31:03.555Z,972.64
2016-05-12T07:32:03.557Z,972.68
2016-05-12T07:33:03.575Z,972.64
2016-05-12T07:34:03.563Z,972.64
2016-05-12T07:35:03.565Z,972.62
2016-05-12T07:36:03.568Z,972.61
2016-05-12T07:37:03.571Z,972.64
2016-05-12T07:38:03.588Z,972.61
2016-05-12T07:39:03.591Z,972.63
2016-05-12T07:40:03.594Z,972.57
2016-05-12T07:41:03.597Z,972.62
2016-05-12T07:42:03.599Z,972.61
2016-05-12T07:43:03.602Z,972.61
2016-05-12T07:44:03.604Z,972.61
2016-05-12T07:45:03.608Z,972.6
2016-05-12T07:46:03.610Z,972.59
2016-05-12T07:47:03.629Z,972.59
2016-05-12T07:48:03.631Z,972.58
2016-05-12T07:49:03.634Z,972.62
2016-05-12T07:50:03.637Z,972.61
2016-05-12T07:51:03.639Z,972.61
2016-05-12T07:52:03.643Z,972.61
2016-05-12T07:53:03.645Z,972.61
2016-05-12T07:54:03.648Z,972.61
2016-05-12T07:55:03.666Z,972.55
2016-05-12T07:56:03.669Z,972.62
2016-05-12T07:57:03.672Z,972.6
2016-05-12T07:58:03.674Z,972.6
2016-05-12T07:59:03.677Z,972.62
2016-05-12T08:00:03.679Z,972.6
2016-05-12T08:01:03.682Z,972.59
2016-05-12T08:02:03.700Z,972.55
2016-05-12T08:03:03.703Z,972.6
2016-05-12T08:04:03.705Z,972.56
2016-05-12T08:05:03.708Z,972.61
2016-05-12T08:06:03.711Z,972.61
2016-05-12T08:07:03.714Z,972.62
2016-05-12T08:08:03.716Z,972.64
2016-05-12T08:09:03.718Z,972.59
2016-05-12T08:10:03.722Z,972.63
2016-05-12T08:11:03.741Z,972.61
2016-05-12T08:12:03.743Z,972.68
2016-05-12T08:13:03.746Z,972.66
2016-05-12T08:14:03.748Z,972.64
2016-05-12T08:15:03.751Z,972.65
2016-05-12T08:16:03.769Z,972.63
2016-05-12T08:17:03.756Z,972.6
2016-05-12T08:18:03.760Z,972.61
2016-05-12T08:19:03.762Z,972.61
2016-05-12T08:20:03.779Z,972.66
2016-05-12T08:21:03.768Z,972.61
2016-05-12T08:22:03.785Z,972.67
2016-05-12T08:23:03.787Z,972.65
2016-05-12T08:24:03.790Z,972.69
2016-05-12T08:25:03.809Z,972.76
2016-05-12T08:26:03.811Z,972.74
2016-05-12T08:27:03.798Z,972.76
2016-05-12T08:28:03.801Z,972.81
2016-05-12T08:29:03.803Z,972.78
2016-05-12T08:30:03.806Z,972.83
2016-05-12T08:31:03.809Z,972.84
2016-05-12T08:32:03.828Z,972.8
2016-05-12T08:33:03.815Z,972.83
2016-05-12T08:34:03.834Z,972.81
2016-05-12T08:35:03.820Z,972.81
2016-05-12T08:36:03.839Z,972.83
2016-05-12T08:37:03.841Z,972.8
2016-05-12T08:38:03.844Z,972.85
2016-05-12T08:39:03.847Z,972.85
2016-05-12T08:40:03.849Z,972.82
2016-05-12T08:41:03.868Z,972.8
2016-05-12T08:42:03.854Z,972.78
2016-05-12T08:43:03.857Z,972.82
2016-05-12T08:44:03.860Z,972.81
2016-05-12T08:45:03.879Z,972.82
2016-05-12T08:46:03.881Z,972.85
2016-05-12T08:47:03.884Z,972.82
2016-05-12T08:48:03.887Z,972.88
2016-05-12T08:49:03.889Z,972.88
2016-05-12T08:50:03.907Z,972.89
2016-05-12T08:51:03.895Z,972.9
2016-05-12T08:52:03.897Z,972.84
2016-05-12T08:53:03.900Z,972.87
2016-05-12T08:54:03.903Z,972.87
2016-05-12T08:55:03.889Z,972.88
2016-05-12T08:56:03.909Z,972.91
2016-05-12T08:57:03.911Z,972.94
2016-05-12T08:58:03.913Z,972.96
2016-05-12T08:59:03.917Z,973.02
2016-05-12T09:00:03.919Z,972.98
2016-05-12T09:01:03.921Z,973.04
2016-05-12T09:02:03.925Z,973.02
2016-05-12T09:03:03.927Z,973.06
2016-05-12T09:04:03.930Z,973.05
2016-05-12T09:05:03.932Z,973.04
2016-05-12T09:06:03.935Z,973.08
2016-05-12T09:07:03.938Z,973.1
2016-05-12T09:08:03.940Z,973.12
2016-05-12T09:09:03.943Z,973.05
2016-05-12T09:10:03.946Z,973.11
2016-05-12T09:11:03.964Z,973.09
2016-05-12T09:12:03.951Z,973.07
2016-05-12T09:13:03.954Z,973.08
2016-05-12T09:14:03.956Z,973.03
2016-05-12T09:15:03.960Z,973.03
2016-05-12T09:16:03.962Z,973.01
2016-05-12T09:17:03.996Z,973.04
2016-05-12T09:18:03.968Z,973.05
2016-05-12T09:19:03.970Z,973.04
2016-05-12T09:20:03.988Z,973.04
2016-05-12T09:21:03.991Z,973.02
2016-05-12T09:22:03.978Z,973.06
2016-05-12T09:23:03.981Z,973.05
2016-05-12T09:24:03.983Z,973.04
2016-05-12T09:25:03.986Z,973.05
2016-05-12T09:26:05.895Z,973.04
2016-05-12T09:27:03.991Z,973.03
2016-05-12T09:28:04.009Z,972.99
2016-05-12T09:29:03.997Z,972.99
2016-05-12T09:30:04.015Z,973
2016-05-12T09:31:05.220Z,973
2016-05-12T09:32:04.005Z,973.02
2016-05-12T09:33:04.023Z,972.98
2016-05-12T09:34:04.025Z,973.02
2016-05-12T09:35:04.028Z,973.06
2016-05-12T09:36:04.313Z,973.04
2016-05-12T09:37:04.050Z,973.02
2016-05-12T09:38:04.036Z,973.08
2016-05-12T09:39:04.055Z,973.04
2016-05-12T09:40:04.042Z,973.04
2016-05-12T09:41:04.076Z,973.05
2016-05-12T09:42:04.047Z,973.09
2016-05-12T09:43:04.049Z,973.1
2016-05-12T09:44:04.052Z,973.09
2016-05-12T09:45:04.055Z,973.03
2016-05-12T09:46:04.057Z,973
2016-05-12T09:47:04.061Z,973.02
2016-05-12T09:48:04.079Z,973.02
2016-05-12T09:49:04.066Z,972.98
2016-05-12T09:50:04.069Z,973
2016-05-12T09:51:04.071Z,973
2016-05-12T09:52:04.090Z,973.02
2016-05-12T09:53:04.092Z,973.06
2016-05-12T09:54:04.095Z,973.07
2016-05-12T09:55:04.098Z,973.02
2016-05-12T09:56:04.101Z,973.04
2016-05-12T09:57:04.103Z,973.02
2016-05-12T09:58:04.106Z,973.02
2016-05-12T09:59:04.108Z,973.06
2016-05-12T10:00:04.127Z,973.09
2016-05-12T10:01:04.130Z,973.1
2016-05-12T10:02:04.132Z,973.03
2016-05-12T10:03:04.136Z,973.08
2016-05-12T10:04:04.139Z,973.01
2016-05-12T10:05:04.125Z,973.01
2016-05-12T10:06:04.128Z,973
2016-05-12T10:07:04.146Z,972.99
2016-05-12T10:08:04.149Z,972.97
2016-05-12T10:09:04.152Z,972.96
2016-05-12T10:10:04.154Z,972.95
2016-05-12T10:11:04.157Z,972.93
2016-05-12T10:12:04.159Z,972.94
2016-05-12T10:13:04.162Z,972.96
2016-05-12T10:14:04.165Z,972.93
2016-05-12T10:15:04.167Z,972.94
2016-05-12T10:16:04.185Z,972.93
2016-05-12T10:17:04.173Z,972.97
2016-05-12T10:18:04.191Z,972.91
2016-05-12T10:19:04.194Z,972.95
2016-05-12T10:20:04.196Z,972.94
2016-05-12T10:21:04.199Z,972.95
2016-05-12T10:22:04.201Z,972.92
2016-05-12T10:23:04.205Z,972.94
2016-05-12T10:24:04.207Z,972.94
2016-05-12T10:25:04.210Z,972.92
2016-05-12T10:26:04.212Z,972.91
2016-05-12T10:27:04.231Z,972.89
2016-05-12T10:28:04.234Z,972.92
2016-05-12T10:29:04.236Z,972.92
2016-05-12T10:30:04.223Z,972.86
2016-05-12T10:31:04.225Z,972.9
2016-05-12T10:32:04.244Z,972.92
2016-05-12T10:33:04.248Z,972.97
2016-05-12T10:34:04.249Z,972.94
2016-05-12T10:35:04.252Z,972.95
2016-05-12T10:36:04.239Z,972.95
2016-05-12T10:37:04.242Z,972.97
2016-05-12T10:38:04.261Z,972.97
2016-05-12T10:39:04.247Z,972.96
2016-05-12T10:40:04.250Z,972.93
2016-05-12T10:41:04.252Z,972.97
2016-05-12T10:42:04.271Z,972.98
2016-05-12T10:43:04.274Z,972.97
2016-05-12T10:44:04.277Z,972.96
2016-05-12T10:45:04.263Z,973.02
2016-05-12T10:46:04.282Z,972.98
2016-05-12T10:47:04.613Z,972.97
2016-05-12T10:48:04.288Z,973.01
2016-05-12T10:49:04.305Z,972.98
2016-05-12T10:50:04.307Z,972.97
2016-05-12T10:51:04.296Z,972.96
2016-05-12T10:52:04.299Z,972.95
2016-05-12T10:53:04.301Z,972.98
2016-05-12T10:54:04.319Z,972.96
2016-05-12T10:55:04.337Z,972.95
2016-05-12T10:56:04.324Z,972.95
2016-05-12T10:57:04.327Z,973
2016-05-12T10:58:04.315Z,972.98
2016-05-12T10:59:04.317Z,972.98
2016-05-12T11:00:04.319Z,972.97
2016-05-12T11:01:04.322Z,972.99
2016-05-12T11:02:04.341Z,972.96
2016-05-12T11:03:04.327Z,972.93
2016-05-12T11:04:04.330Z,972.91
2016-05-12T11:05:04.333Z,972.96
2016-05-12T11:06:04.336Z,972.89
2016-05-12T11:07:04.339Z,972.91
2016-05-12T11:08:04.342Z,972.89
2016-05-12T11:09:04.343Z,972.89
2016-05-12T11:10:04.347Z,972.89
2016-05-12T11:11:04.350Z,972.88
2016-05-12T11:12:04.352Z,972.92
2016-05-12T11:13:04.370Z,972.88
2016-05-12T11:14:04.357Z,972.88
2016-05-12T11:15:04.360Z,972.92
2016-05-12T11:16:04.363Z,972.88
2016-05-12T11:17:04.365Z,972.85
2016-05-12T11:18:04.368Z,972.89
2016-05-12T11:19:04.371Z,972.89
2016-05-12T11:20:04.388Z,972.89
2016-05-12T11:21:04.376Z,972.87
2016-05-12T11:22:04.379Z,972.88
2016-05-12T11:23:04.381Z,972.82
2016-05-12T11:24:04.384Z,972.87
2016-05-12T11:25:04.387Z,972.83
2016-05-12T11:26:04.390Z,972.86
2016-05-12T11:27:04.392Z,972.85
2016-05-12T11:28:04.395Z,972.84
2016-05-12T11:29:04.398Z,972.8
2016-05-12T11:30:04.401Z,972.85
2016-05-12T11:31:04.403Z,972.87
2016-05-12T11:32:04.405Z,972.87
2016-05-12T11:33:04.409Z,972.87
2016-05-12T11:34:04.567Z,972.81
2016-05-12T11:35:04.413Z,972.86
2016-05-12T11:36:04.432Z,972.82
2016-05-12T11:37:04.419Z,972.79
2016-05-12T11:38:04.422Z,972.84
2016-05-12T11:39:04.439Z,972.76
2016-05-12T11:40:04.428Z,972.81
2016-05-12T11:41:04.430Z,972.8
2016-05-12T11:42:04.432Z,972.84
2016-05-12T11:43:04.436Z,972.8
2016-05-12T11:44:04.438Z,972.79
2016-05-12T11:45:04.441Z,972.79
2016-05-12T11:46:04.444Z,972.79
2016-05-12T11:47:04.446Z,972.84
2016-05-12T11:48:04.449Z,972.77
2016-05-12T11:49:04.451Z,972.82
2016-05-12T11:50:04.455Z,972.82
2016-05-12T11:51:04.457Z,972.78
2016-05-12T11:52:04.474Z,972.78
2016-05-12T11:53:04.462Z,972.82
2016-05-12T11:54:04.465Z,972.82
2016-05-12T11:55:04.468Z,972.82
2016-05-12T11:56:04.454Z,972.89
2016-05-12T11:57:04.473Z,972.84
2016-05-12T11:58:04.460Z,972.87
2016-05-12T11:59:04.462Z,972.89
2016-05-12T12:00:04.481Z,972.85
2016-05-12T12:01:04.484Z,972.88
2016-05-12T12:02:04.471Z,972.83
2016-05-12T12:03:04.474Z,972.85
2016-05-12T12:04:04.476Z,972.84
2016-05-12T12:05:04.478Z,972.82
2016-05-12T12:06:04.481Z,972.85
2016-05-12T12:07:04.484Z,972.83
2016-05-12T12:08:04.502Z,972.84
2016-05-12T12:09:04.506Z,972.85
2016-05-12T12:10:04.492Z,972.82
2016-05-12T12:11:04.494Z,972.8
2016-05-12T12:12:04.497Z,972.82
2016-05-12T12:13:04.500Z,972.79
2016-05-12T12:14:04.502Z,972.83
2016-05-12T12:15:04.521Z,972.8
2016-05-12T12:16:04.508Z,972.76
2016-05-12T12:17:04.511Z,972.83
2016-05-12T12:18:04.514Z,972.79
2016-05-12T12:19:04.516Z,972.77
2016-05-12T12:20:04.519Z,972.81
2016-05-12T12:21:04.506Z,972.85
2016-05-12T12:22:04.525Z,972.88
2016-05-12T12:23:04.512Z,972.86
2016-05-12T12:24:04.546Z,972.85
2016-05-12T12:25:04.517Z,972.88
2016-05-12T12:26:04.551Z,972.87
2016-05-12T12:27:04.538Z,972.85
2016-05-12T12:28:04.525Z,972.8
2016-05-12T12:29:04.543Z,972.81
2016-05-12T12:30:04.530Z,972.73
2016-05-12T12:31:04.533Z,972.76